sensor_id;sensor_type;location;lat;lon;timestamp;P1;durP1;ratioP1;P2;durP2;ratioP2
30519;SDS011;17300;50.374;8.006;2023-03-23T00:02:05;0.50;;;0.50;;
30519;SDS011;17300;50.374;8.006;2023-03-23T00:04:32;0.50;;;0.50;;
30519;SDS011;17300;50.374;8.006;2023-03-23T00:07:00;0.63;;;0.60;;
30519;SDS011;17300;50.374;8.006;2023-03-23T00:09:28;1.13;;;0.50;;
30519;SDS011;17300;50.374;8.006;2023-03-23T00:11:59;1.43;;;0.70;;
30519;SDS011;17300;50.374;8.006;2023-03-23T00:14:31;0.50;;;0.50;;
30519;SDS011;17300;50.374;8.006;2023-03-23T00:17:05;0.70;;;0.50;;
30519;SDS011;17300;50.374;8.006;2023-03-23T00:19:34;0.60;;;0.60;;
30519;SDS011;17300;50.374;8.006;2023-03-23T00:22:11;0.50;;;0.40;;
30519;SDS011;17300;50.374;8.006;2023-03-23T00:24:39;0.50;;;0.50;;
30519;SDS011;17300;50.374;8.006;2023-03-23T00:27:06;0.43;;;0.43;;
30519;SDS011;17300;50.374;8.006;2023-03-23T00:29:34;0.80;;;0.60;;
30519;SDS011;17300;50.374;8.006;2023-03-23T00:32:01;0.70;;;0.60;;
30519;SDS011;17300;50.374;8.006;2023-03-23T00:34:27;1.87;;;0.70;;
30519;SDS011;17300;50.374;8.006;2023-03-23T00:36:59;1.10;;;0.40;;
30519;SDS011;17300;50.374;8.006;2023-03-23T00:39:27;0.40;;;0.40;;
30519;SDS011;17300;50.374;8.006;2023-03-23T00:41:54;0.87;;;0.53;;
30519;SDS011;17300;50.374;8.006;2023-03-23T00:44:25;0.50;;;0.50;;
30519;SDS011;17300;50.374;8.006;2023-03-23T00:46:53;0.70;;;0.57;;
30519;SDS011;17300;50.374;8.006;2023-03-23T00:49:21;0.50;;;0.50;;
30519;SDS011;17300;50.374;8.006;2023-03-23T00:51:50;0.73;;;0.60;;
30519;SDS011;17300;50.374;8.006;2023-03-23T00:54:17;0.87;;;0.60;;
30519;SDS011;17300;50.374;8.006;2023-03-23T00:56:46;0.70;;;0.50;;
30519;SDS011;17300;50.374;8.006;2023-03-23T00:59:13;0.73;;;0.67;;
30519;SDS011;17300;50.374;8.006;2023-03-23T01:01:40;0.57;;;0.57;;
30519;SDS011;17300;50.374;8.006;2023-03-23T01:04:07;0.70;;;0.60;;
30519;SDS011;17300;50.374;8.006;2023-03-23T01:06:37;0.90;;;0.57;;
30519;SDS011;17300;50.374;8.006;2023-03-23T01:09:05;0.50;;;0.50;;
30519;SDS011;17300;50.374;8.006;2023-03-23T01:11:33;0.53;;;0.50;;
30519;SDS011;17300;50.374;8.006;2023-03-23T01:14:02;1.07;;;0.60;;
30519;SDS011;17300;50.374;8.006;2023-03-23T01:16:29;0.77;;;0.53;;
30519;SDS011;17300;50.374;8.006;2023-03-23T01:18:56;1.50;;;0.70;;
30519;SDS011;17300;50.374;8.006;2023-03-23T01:21:22;1.70;;;0.57;;
30519;SDS011;17300;50.374;8.006;2023-03-23T01:23:50;0.60;;;0.60;;
30519;SDS011;17300;50.374;8.006;2023-03-23T01:26:17;0.70;;;0.57;;
30519;SDS011;17300;50.374;8.006;2023-03-23T01:28:46;0.50;;;0.50;;
30519;SDS011;17300;50.374;8.006;2023-03-23T01:31:15;0.50;;;0.50;;
30519;SDS011;17300;50.374;8.006;2023-03-23T01:33:43;0.70;;;0.57;;
30519;SDS011;17300;50.374;8.006;2023-03-23T01:36:11;0.63;;;0.60;;
30519;SDS011;17300;50.374;8.006;2023-03-23T01:38:41;0.87;;;0.73;;
30519;SDS011;17300;50.374;8.006;2023-03-23T01:41:08;0.67;;;0.60;;
30519;SDS011;17300;50.374;8.006;2023-03-23T01:43:35;0.90;;;0.60;;
30519;SDS011;17300;50.374;8.006;2023-03-23T01:46:02;0.80;;;0.67;;
30519;SDS011;17300;50.374;8.006;2023-03-23T01:48:31;0.60;;;0.60;;
30519;SDS011;17300;50.374;8.006;2023-03-23T01:51:01;0.67;;;0.60;;
30519;SDS011;17300;50.374;8.006;2023-03-23T01:53:31;0.70;;;0.50;;
30519;SDS011;17300;50.374;8.006;2023-03-23T01:56:03;0.90;;;0.70;;
30519;SDS011;17300;50.374;8.006;2023-03-23T01:58:32;0.60;;;0.60;;
30519;SDS011;17300;50.374;8.006;2023-03-23T02:01:02;1.53;;;0.70;;
30519;SDS011;17300;50.374;8.006;2023-03-23T02:03:32;0.63;;;0.63;;
30519;SDS011;17300;50.374;8.006;2023-03-23T02:06:03;0.70;;;0.70;;
30519;SDS011;17300;50.374;8.006;2023-03-23T02:08:31;2.33;;;0.80;;
30519;SDS011;17300;50.374;8.006;2023-03-23T02:11:00;0.77;;;0.77;;
30519;SDS011;17300;50.374;8.006;2023-03-23T02:13:27;1.27;;;0.73;;
30519;SDS011;17300;50.374;8.006;2023-03-23T02:15:58;0.77;;;0.70;;
30519;SDS011;17300;50.374;8.006;2023-03-23T02:18:47;0.63;;;0.63;;
30519;SDS011;17300;50.374;8.006;2023-03-23T02:21:29;1.23;;;0.70;;
30519;SDS011;17300;50.374;8.006;2023-03-23T02:27:17;1.00;;;0.83;;
30519;SDS011;17300;50.374;8.006;2023-03-23T02:30:04;1.27;;;0.80;;
30519;SDS011;17300;50.374;8.006;2023-03-23T02:35:36;0.83;;;0.80;;
30519;SDS011;17300;50.374;8.006;2023-03-23T02:38:06;1.20;;;1.10;;
30519;SDS011;17300;50.374;8.006;2023-03-23T02:40:37;1.17;;;0.90;;
30519;SDS011;17300;50.374;8.006;2023-03-23T02:43:07;1.13;;;0.90;;
30519;SDS011;17300;50.374;8.006;2023-03-23T02:45:37;1.47;;;1.10;;
30519;SDS011;17300;50.374;8.006;2023-03-23T02:48:05;1.80;;;0.77;;
30519;SDS011;17300;50.374;8.006;2023-03-23T02:50:33;1.00;;;0.90;;
30519;SDS011;17300;50.374;8.006;2023-03-23T02:53:05;0.80;;;0.80;;
30519;SDS011;17300;50.374;8.006;2023-03-23T02:55:35;1.07;;;1.00;;
30519;SDS011;17300;50.374;8.006;2023-03-23T02:58:07;1.73;;;1.13;;
30519;SDS011;17300;50.374;8.006;2023-03-23T03:00:33;1.03;;;0.80;;
30519;SDS011;17300;50.374;8.006;2023-03-23T03:03:01;0.77;;;0.73;;
30519;SDS011;17300;50.374;8.006;2023-03-23T03:05:32;0.90;;;0.90;;
30519;SDS011;17300;50.374;8.006;2023-03-23T03:08:15;0.90;;;0.90;;
30519;SDS011;17300;50.374;8.006;2023-03-23T03:10:50;0.80;;;0.80;;
30519;SDS011;17300;50.374;8.006;2023-03-23T03:13:23;1.77;;;1.10;;
30519;SDS011;17300;50.374;8.006;2023-03-23T03:15:59;0.60;;;0.60;;
30519;SDS011;17300;50.374;8.006;2023-03-23T03:18:29;1.00;;;0.80;;
30519;SDS011;17300;50.374;8.006;2023-03-23T03:21:00;0.80;;;0.70;;
30519;SDS011;17300;50.374;8.006;2023-03-23T03:23:30;0.60;;;0.53;;
30519;SDS011;17300;50.374;8.006;2023-03-23T03:25:58;0.60;;;0.60;;
30519;SDS011;17300;50.374;8.006;2023-03-23T03:28:26;0.60;;;0.60;;
30519;SDS011;17300;50.374;8.006;2023-03-23T03:30:54;1.40;;;0.80;;
30519;SDS011;17300;50.374;8.006;2023-03-23T03:33:26;0.73;;;0.70;;
30519;SDS011;17300;50.374;8.006;2023-03-23T03:35:56;1.23;;;0.70;;
30519;SDS011;17300;50.374;8.006;2023-03-23T03:38:26;0.60;;;0.60;;
30519;SDS011;17300;50.374;8.006;2023-03-23T03:40:54;1.03;;;0.80;;
30519;SDS011;17300;50.374;8.006;2023-03-23T03:43:22;0.80;;;0.63;;
30519;SDS011;17300;50.374;8.006;2023-03-23T03:45:48;1.00;;;0.77;;
30519;SDS011;17300;50.374;8.006;2023-03-23T03:48:15;0.73;;;0.60;;
30519;SDS011;17300;50.374;8.006;2023-03-23T03:50:42;1.20;;;0.80;;
30519;SDS011;17300;50.374;8.006;2023-03-23T03:53:08;0.50;;;0.50;;
30519;SDS011;17300;50.374;8.006;2023-03-23T03:55:37;0.53;;;0.53;;
30519;SDS011;17300;50.374;8.006;2023-03-23T03:58:03;0.60;;;0.57;;
30519;SDS011;17300;50.374;8.006;2023-03-23T04:00:31;0.93;;;0.70;;
30519;SDS011;17300;50.374;8.006;2023-03-23T04:02:58;0.90;;;0.60;;
30519;SDS011;17300;50.374;8.006;2023-03-23T04:05:25;0.67;;;0.60;;
30519;SDS011;17300;50.374;8.006;2023-03-23T04:07:53;0.60;;;0.60;;
30519;SDS011;17300;50.374;8.006;2023-03-23T04:10:26;0.70;;;0.70;;
30519;SDS011;17300;50.374;8.006;2023-03-23T04:12:55;0.60;;;0.60;;
30519;SDS011;17300;50.374;8.006;2023-03-23T04:15:22;0.73;;;0.70;;
30519;SDS011;17300;50.374;8.006;2023-03-23T04:17:49;1.17;;;0.57;;
30519;SDS011;17300;50.374;8.006;2023-03-23T04:20:16;1.67;;;0.70;;
30519;SDS011;17300;50.374;8.006;2023-03-23T04:22:43;0.67;;;0.50;;
30519;SDS011;17300;50.374;8.006;2023-03-23T04:25:11;0.87;;;0.60;;
30519;SDS011;17300;50.374;8.006;2023-03-23T04:27:39;0.50;;;0.50;;
30519;SDS011;17300;50.374;8.006;2023-03-23T04:30:10;0.60;;;0.60;;
30519;SDS011;17300;50.374;8.006;2023-03-23T04:32:38;0.70;;;0.67;;
30519;SDS011;17300;50.374;8.006;2023-03-23T04:35:07;0.57;;;0.50;;
30519;SDS011;17300;50.374;8.006;2023-03-23T04:37:35;0.50;;;0.50;;
30519;SDS011;17300;50.374;8.006;2023-03-23T04:40:04;0.90;;;0.60;;
30519;SDS011;17300;50.374;8.006;2023-03-23T04:42:36;0.60;;;0.57;;
30519;SDS011;17300;50.374;8.006;2023-03-23T04:45:04;0.63;;;0.60;;
30519;SDS011;17300;50.374;8.006;2023-03-23T04:47:34;1.10;;;0.60;;
30519;SDS011;17300;50.374;8.006;2023-03-23T04:50:05;0.60;;;0.60;;
30519;SDS011;17300;50.374;8.006;2023-03-23T04:52:34;0.83;;;0.60;;
30519;SDS011;17300;50.374;8.006;2023-03-23T04:55:02;0.60;;;0.60;;
30519;SDS011;17300;50.374;8.006;2023-03-23T04:57:30;0.60;;;0.60;;
30519;SDS011;17300;50.374;8.006;2023-03-23T04:59:57;0.80;;;0.63;;
30519;SDS011;17300;50.374;8.006;2023-03-23T05:02:24;0.80;;;0.70;;
30519;SDS011;17300;50.374;8.006;2023-03-23T05:04:56;0.60;;;0.60;;
30519;SDS011;17300;50.374;8.006;2023-03-23T05:07:24;0.80;;;0.50;;
30519;SDS011;17300;50.374;8.006;2023-03-23T05:09:50;2.03;;;0.73;;
30519;SDS011;17300;50.374;8.006;2023-03-23T05:12:17;0.90;;;0.80;;
30519;SDS011;17300;50.374;8.006;2023-03-23T05:14:44;0.60;;;0.60;;
30519;SDS011;17300;50.374;8.006;2023-03-23T05:17:11;0.60;;;0.60;;
30519;SDS011;17300;50.374;8.006;2023-03-23T05:19:41;0.67;;;0.50;;
30519;SDS011;17300;50.374;8.006;2023-03-23T05:22:10;1.33;;;0.53;;
30519;SDS011;17300;50.374;8.006;2023-03-23T05:24:37;0.80;;;0.80;;
30519;SDS011;17300;50.374;8.006;2023-03-23T05:27:04;0.70;;;0.70;;
30519;SDS011;17300;50.374;8.006;2023-03-23T05:29:32;0.70;;;0.70;;
30519;SDS011;17300;50.374;8.006;2023-03-23T05:32:01;0.73;;;0.70;;
30519;SDS011;17300;50.374;8.006;2023-03-23T05:34:29;1.43;;;0.80;;
30519;SDS011;17300;50.374;8.006;2023-03-23T05:36:57;0.80;;;0.70;;
30519;SDS011;17300;50.374;8.006;2023-03-23T05:39:31;0.93;;;0.83;;
30519;SDS011;17300;50.374;8.006;2023-03-23T05:41:59;1.23;;;0.73;;
30519;SDS011;17300;50.374;8.006;2023-03-23T05:44:26;1.00;;;0.63;;
30519;SDS011;17300;50.374;8.006;2023-03-23T05:46:53;0.60;;;0.50;;
30519;SDS011;17300;50.374;8.006;2023-03-23T05:49:20;0.67;;;0.67;;
30519;SDS011;17300;50.374;8.006;2023-03-23T05:51:47;1.83;;;0.97;;
30519;SDS011;17300;50.374;8.006;2023-03-23T05:54:14;1.37;;;0.67;;
30519;SDS011;17300;50.374;8.006;2023-03-23T05:56:43;0.70;;;0.67;;
30519;SDS011;17300;50.374;8.006;2023-03-23T05:59:09;0.63;;;0.60;;
30519;SDS011;17300;50.374;8.006;2023-03-23T06:01:37;1.10;;;0.80;;
30519;SDS011;17300;50.374;8.006;2023-03-23T06:04:04;0.70;;;0.70;;
30519;SDS011;17300;50.374;8.006;2023-03-23T06:06:31;1.30;;;0.90;;
30519;SDS011;17300;50.374;8.006;2023-03-23T06:08:58;0.80;;;0.80;;
30519;SDS011;17300;50.374;8.006;2023-03-23T06:11:25;1.00;;;0.77;;
30519;SDS011;17300;50.374;8.006;2023-03-23T06:13:54;0.70;;;0.70;;
30519;SDS011;17300;50.374;8.006;2023-03-23T06:16:20;0.90;;;0.77;;
30519;SDS011;17300;50.374;8.006;2023-03-23T06:18:48;0.80;;;0.73;;
30519;SDS011;17300;50.374;8.006;2023-03-23T06:21:14;0.90;;;0.80;;
30519;SDS011;17300;50.374;8.006;2023-03-23T06:23:43;0.63;;;0.60;;
30519;SDS011;17300;50.374;8.006;2023-03-23T06:26:10;0.60;;;0.60;;
30519;SDS011;17300;50.374;8.006;2023-03-23T06:28:41;0.70;;;0.70;;
30519;SDS011;17300;50.374;8.006;2023-03-23T06:31:09;0.80;;;0.73;;
30519;SDS011;17300;50.374;8.006;2023-03-23T06:33:36;0.67;;;0.67;;
30519;SDS011;17300;50.374;8.006;2023-03-23T06:36:04;0.60;;;0.60;;
30519;SDS011;17300;50.374;8.006;2023-03-23T06:38:31;1.10;;;1.00;;
30519;SDS011;17300;50.374;8.006;2023-03-23T06:40:58;1.27;;;1.07;;
30519;SDS011;17300;50.374;8.006;2023-03-23T06:43:25;0.93;;;0.90;;
30519;SDS011;17300;50.374;8.006;2023-03-23T06:45:52;0.67;;;0.67;;
30519;SDS011;17300;50.374;8.006;2023-03-23T06:48:20;0.70;;;0.70;;
30519;SDS011;17300;50.374;8.006;2023-03-23T06:50:46;0.70;;;0.70;;
30519;SDS011;17300;50.374;8.006;2023-03-23T06:53:13;0.70;;;0.70;;
30519;SDS011;17300;50.374;8.006;2023-03-23T06:55:42;0.80;;;0.80;;
30519;SDS011;17300;50.374;8.006;2023-03-23T06:58:09;2.77;;;1.20;;
30519;SDS011;17300;50.374;8.006;2023-03-23T07:00:36;0.73;;;0.73;;
30519;SDS011;17300;50.374;8.006;2023-03-23T07:03:03;0.87;;;0.87;;
30519;SDS011;17300;50.374;8.006;2023-03-23T07:05:31;1.43;;;0.80;;
30519;SDS011;17300;50.374;8.006;2023-03-23T07:07:58;0.60;;;0.60;;
30519;SDS011;17300;50.374;8.006;2023-03-23T07:10:25;0.90;;;0.70;;
30519;SDS011;17300;50.374;8.006;2023-03-23T07:12:52;1.00;;;0.90;;
30519;SDS011;17300;50.374;8.006;2023-03-23T07:15:19;0.77;;;0.70;;
30519;SDS011;17300;50.374;8.006;2023-03-23T07:17:47;2.00;;;1.80;;
30519;SDS011;17300;50.374;8.006;2023-03-23T07:20:14;1.47;;;1.20;;
30519;SDS011;17300;50.374;8.006;2023-03-23T07:22:42;1.20;;;0.90;;
30519;SDS011;17300;50.374;8.006;2023-03-23T07:25:08;1.93;;;0.80;;
30519;SDS011;17300;50.374;8.006;2023-03-23T07:27:36;1.17;;;0.70;;
30519;SDS011;17300;50.374;8.006;2023-03-23T07:30:03;0.70;;;0.70;;
30519;SDS011;17300;50.374;8.006;2023-03-23T07:32:31;1.63;;;0.80;;
30519;SDS011;17300;50.374;8.006;2023-03-23T07:34:58;1.00;;;0.67;;
30519;SDS011;17300;50.374;8.006;2023-03-23T07:37:25;0.67;;;0.67;;
30519;SDS011;17300;50.374;8.006;2023-03-23T07:39:55;0.57;;;0.57;;
30519;SDS011;17300;50.374;8.006;2023-03-23T07:42:22;0.83;;;0.70;;
30519;SDS011;17300;50.374;8.006;2023-03-23T07:44:49;0.57;;;0.57;;
30519;SDS011;17300;50.374;8.006;2023-03-23T07:47:16;0.80;;;0.80;;
30519;SDS011;17300;50.374;8.006;2023-03-23T07:49:43;0.87;;;0.60;;
30519;SDS011;17300;50.374;8.006;2023-03-23T07:52:10;0.63;;;0.50;;
30519;SDS011;17300;50.374;8.006;2023-03-23T07:54:38;0.93;;;0.70;;
30519;SDS011;17300;50.374;8.006;2023-03-23T07:57:06;0.93;;;0.73;;
30519;SDS011;17300;50.374;8.006;2023-03-23T07:59:33;0.60;;;0.60;;
30519;SDS011;17300;50.374;8.006;2023-03-23T08:02:00;0.80;;;0.60;;
30519;SDS011;17300;50.374;8.006;2023-03-23T08:04:27;1.33;;;0.60;;
30519;SDS011;17300;50.374;8.006;2023-03-23T08:06:54;0.60;;;0.50;;
30519;SDS011;17300;50.374;8.006;2023-03-23T08:09:21;0.60;;;0.60;;
30519;SDS011;17300;50.374;8.006;2023-03-23T08:11:48;1.53;;;0.60;;
30519;SDS011;17300;50.374;8.006;2023-03-23T08:14:16;0.70;;;0.70;;
30519;SDS011;17300;50.374;8.006;2023-03-23T08:16:42;0.60;;;0.60;;
30519;SDS011;17300;50.374;8.006;2023-03-23T08:19:09;0.80;;;0.70;;
30519;SDS011;17300;50.374;8.006;2023-03-23T08:21:36;0.70;;;0.70;;
30519;SDS011;17300;50.374;8.006;2023-03-23T08:24:03;1.03;;;0.77;;
30519;SDS011;17300;50.374;8.006;2023-03-23T08:26:30;0.63;;;0.60;;
30519;SDS011;17300;50.374;8.006;2023-03-23T08:28:57;1.63;;;0.60;;
30519;SDS011;17300;50.374;8.006;2023-03-23T08:31:25;0.67;;;0.67;;
30519;SDS011;17300;50.374;8.006;2023-03-23T08:33:52;0.70;;;0.70;;
30519;SDS011;17300;50.374;8.006;2023-03-23T08:36:21;0.80;;;0.67;;
30519;SDS011;17300;50.374;8.006;2023-03-23T08:38:48;0.93;;;0.70;;
30519;SDS011;17300;50.374;8.006;2023-03-23T08:41:16;0.60;;;0.60;;
30519;SDS011;17300;50.374;8.006;2023-03-23T08:43:43;0.80;;;0.77;;
30519;SDS011;17300;50.374;8.006;2023-03-23T08:46:10;0.53;;;0.53;;
30519;SDS011;17300;50.374;8.006;2023-03-23T08:48:38;0.67;;;0.60;;
30519;SDS011;17300;50.374;8.006;2023-03-23T08:51:05;0.70;;;0.60;;
30519;SDS011;17300;50.374;8.006;2023-03-23T08:53:33;0.50;;;0.50;;
30519;SDS011;17300;50.374;8.006;2023-03-23T08:56:05;0.50;;;0.50;;
30519;SDS011;17300;50.374;8.006;2023-03-23T08:58:33;0.90;;;0.70;;
30519;SDS011;17300;50.374;8.006;2023-03-23T09:00:59;1.30;;;0.80;;
30519;SDS011;17300;50.374;8.006;2023-03-23T09:03:27;0.80;;;0.80;;
30519;SDS011;17300;50.374;8.006;2023-03-23T09:05:59;0.77;;;0.77;;
30519;SDS011;17300;50.374;8.006;2023-03-23T09:08:26;0.60;;;0.50;;
30519;SDS011;17300;50.374;8.006;2023-03-23T09:10:53;0.70;;;0.70;;
30519;SDS011;17300;50.374;8.006;2023-03-23T09:13:21;0.60;;;0.60;;
30519;SDS011;17300;50.374;8.006;2023-03-23T09:15:48;0.60;;;0.60;;
30519;SDS011;17300;50.374;8.006;2023-03-23T09:18:15;0.50;;;0.50;;
30519;SDS011;17300;50.374;8.006;2023-03-23T09:20:42;0.50;;;0.50;;
30519;SDS011;17300;50.374;8.006;2023-03-23T09:23:10;0.53;;;0.50;;
30519;SDS011;17300;50.374;8.006;2023-03-23T09:25:38;0.70;;;0.67;;
30519;SDS011;17300;50.374;8.006;2023-03-23T09:28:05;0.50;;;0.50;;
30519;SDS011;17300;50.374;8.006;2023-03-23T09:30:32;0.80;;;0.70;;
30519;SDS011;17300;50.374;8.006;2023-03-23T09:33:01;0.50;;;0.50;;
30519;SDS011;17300;50.374;8.006;2023-03-23T09:35:29;0.80;;;0.70;;
30519;SDS011;17300;50.374;8.006;2023-03-23T09:37:59;0.70;;;0.43;;
30519;SDS011;17300;50.374;8.006;2023-03-23T09:40:30;0.47;;;0.47;;
30519;SDS011;17300;50.374;8.006;2023-03-23T09:43:08;0.50;;;0.50;;
30519;SDS011;17300;50.374;8.006;2023-03-23T09:46:12;0.53;;;0.50;;
30519;SDS011;17300;50.374;8.006;2023-03-23T09:48:57;1.00;;;0.60;;
30519;SDS011;17300;50.374;8.006;2023-03-23T09:51:29;0.60;;;0.60;;
30519;SDS011;17300;50.374;8.006;2023-03-23T09:54:04;0.63;;;0.50;;
30519;SDS011;17300;50.374;8.006;2023-03-23T09:56:37;0.50;;;0.40;;
30519;SDS011;17300;50.374;8.006;2023-03-23T09:59:05;0.47;;;0.47;;
30519;SDS011;17300;50.374;8.006;2023-03-23T10:01:39;0.70;;;0.50;;
30519;SDS011;17300;50.374;8.006;2023-03-23T10:04:10;0.50;;;0.50;;
30519;SDS011;17300;50.374;8.006;2023-03-23T10:06:41;0.50;;;0.50;;
30519;SDS011;17300;50.374;8.006;2023-03-23T10:09:08;0.53;;;0.50;;
30519;SDS011;17300;50.374;8.006;2023-03-23T10:11:47;0.50;;;0.50;;
30519;SDS011;17300;50.374;8.006;2023-03-23T10:14:31;0.63;;;0.50;;
30519;SDS011;17300;50.374;8.006;2023-03-23T10:17:12;0.77;;;0.60;;
30519;SDS011;17300;50.374;8.006;2023-03-23T10:19:43;0.50;;;0.50;;
30519;SDS011;17300;50.374;8.006;2023-03-23T10:22:17;0.47;;;0.43;;
30519;SDS011;17300;50.374;8.006;2023-03-23T10:24:49;0.40;;;0.40;;
30519;SDS011;17300;50.374;8.006;2023-03-23T10:27:25;0.60;;;0.47;;
30519;SDS011;17300;50.374;8.006;2023-03-23T10:29:55;0.47;;;0.40;;
30519;SDS011;17300;50.374;8.006;2023-03-23T10:32:39;0.73;;;0.60;;
30519;SDS011;17300;50.374;8.006;2023-03-23T10:35:10;0.37;;;0.37;;
30519;SDS011;17300;50.374;8.006;2023-03-23T10:37:42;0.30;;;0.30;;
30519;SDS011;17300;50.374;8.006;2023-03-23T10:40:13;0.40;;;0.40;;
30519;SDS011;17300;50.374;8.006;2023-03-23T10:42:45;0.47;;;0.30;;
30519;SDS011;17300;50.374;8.006;2023-03-23T10:45:14;0.50;;;0.40;;
30519;SDS011;17300;50.374;8.006;2023-03-23T10:47:46;0.70;;;0.50;;
30519;SDS011;17300;50.374;8.006;2023-03-23T10:50:18;0.40;;;0.40;;
30519;SDS011;17300;50.374;8.006;2023-03-23T10:52:50;0.30;;;0.30;;
30519;SDS011;17300;50.374;8.006;2023-03-23T10:55:19;0.53;;;0.43;;
30519;SDS011;17300;50.374;8.006;2023-03-23T10:57:59;0.33;;;0.33;;
30519;SDS011;17300;50.374;8.006;2023-03-23T11:00:27;0.43;;;0.40;;
30519;SDS011;17300;50.374;8.006;2023-03-23T11:02:59;0.50;;;0.40;;
30519;SDS011;17300;50.374;8.006;2023-03-23T11:05:32;0.30;;;0.30;;
30519;SDS011;17300;50.374;8.006;2023-03-23T11:08:01;0.53;;;0.40;;
30519;SDS011;17300;50.374;8.006;2023-03-23T11:10:33;0.30;;;0.30;;
30519;SDS011;17300;50.374;8.006;2023-03-23T11:13:03;0.37;;;0.37;;
30519;SDS011;17300;50.374;8.006;2023-03-23T11:15:35;0.40;;;0.40;;
30519;SDS011;17300;50.374;8.006;2023-03-23T11:18:05;0.40;;;0.40;;
30519;SDS011;17300;50.374;8.006;2023-03-23T11:20:36;0.43;;;0.40;;
30519;SDS011;17300;50.374;8.006;2023-03-23T11:23:17;0.47;;;0.43;;
30519;SDS011;17300;50.374;8.006;2023-03-23T11:25:51;0.37;;;0.37;;
30519;SDS011;17300;50.374;8.006;2023-03-23T11:28:26;0.30;;;0.30;;
30519;SDS011;17300;50.374;8.006;2023-03-23T11:30:57;0.63;;;0.40;;
30519;SDS011;17300;50.374;8.006;2023-03-23T11:33:28;0.40;;;0.40;;
30519;SDS011;17300;50.374;8.006;2023-03-23T11:35:55;0.33;;;0.33;;
30519;SDS011;17300;50.374;8.006;2023-03-23T11:38:23;0.40;;;0.40;;
30519;SDS011;17300;50.374;8.006;2023-03-23T11:40:52;0.40;;;0.40;;
30519;SDS011;17300;50.374;8.006;2023-03-23T11:43:20;0.40;;;0.40;;
30519;SDS011;17300;50.374;8.006;2023-03-23T11:45:52;0.40;;;0.40;;
30519;SDS011;17300;50.374;8.006;2023-03-23T11:48:29;0.50;;;0.50;;
30519;SDS011;17300;50.374;8.006;2023-03-23T11:51:02;0.40;;;0.40;;
30519;SDS011;17300;50.374;8.006;2023-03-23T11:53:35;0.50;;;0.50;;
30519;SDS011;17300;50.374;8.006;2023-03-23T11:56:12;0.43;;;0.43;;
30519;SDS011;17300;50.374;8.006;2023-03-23T11:58:43;0.40;;;0.40;;
30519;SDS011;17300;50.374;8.006;2023-03-23T12:01:13;0.40;;;0.40;;
30519;SDS011;17300;50.374;8.006;2023-03-23T12:03:52;0.50;;;0.47;;
30519;SDS011;17300;50.374;8.006;2023-03-23T12:06:43;0.40;;;0.40;;
30519;SDS011;17300;50.374;8.006;2023-03-23T12:09:20;0.70;;;0.40;;
30519;SDS011;17300;50.374;8.006;2023-03-23T12:11:58;0.40;;;0.30;;
30519;SDS011;17300;50.374;8.006;2023-03-23T12:14:36;0.50;;;0.43;;
30519;SDS011;17300;50.374;8.006;2023-03-23T12:17:15;0.50;;;0.47;;
30519;SDS011;17300;50.374;8.006;2023-03-23T12:19:51;1.03;;;0.40;;
30519;SDS011;17300;50.374;8.006;2023-03-23T12:22:37;1.37;;;0.40;;
30519;SDS011;17300;50.374;8.006;2023-03-23T12:25:17;0.83;;;0.60;;
30519;SDS011;17300;50.374;8.006;2023-03-23T12:28:15;0.30;;;0.30;;
30519;SDS011;17300;50.374;8.006;2023-03-23T12:30:49;0.83;;;0.50;;
30519;SDS011;17300;50.374;8.006;2023-03-23T12:33:26;0.47;;;0.40;;
30519;SDS011;17300;50.374;8.006;2023-03-23T12:36:03;0.23;;;0.23;;
30519;SDS011;17300;50.374;8.006;2023-03-23T12:38:39;0.33;;;0.30;;
30519;SDS011;17300;50.374;8.006;2023-03-23T12:41:17;0.47;;;0.30;;
30519;SDS011;17300;50.374;8.006;2023-03-23T12:43:51;0.90;;;0.30;;
30519;SDS011;17300;50.374;8.006;2023-03-23T12:46:32;0.30;;;0.30;;
30519;SDS011;17300;50.374;8.006;2023-03-23T12:49:15;0.53;;;0.30;;
30519;SDS011;17300;50.374;8.006;2023-03-23T12:51:48;0.67;;;0.30;;
30519;SDS011;17300;50.374;8.006;2023-03-23T12:54:22;0.50;;;0.40;;
30519;SDS011;17300;50.374;8.006;2023-03-23T12:56:54;0.50;;;0.50;;
30519;SDS011;17300;50.374;8.006;2023-03-23T12:59:27;0.70;;;0.60;;
30519;SDS011;17300;50.374;8.006;2023-03-23T13:02:04;1.27;;;0.50;;
30519;SDS011;17300;50.374;8.006;2023-03-23T13:04:41;0.53;;;0.53;;
30519;SDS011;17300;50.374;8.006;2023-03-23T13:07:12;0.80;;;0.50;;
30519;SDS011;17300;50.374;8.006;2023-03-23T13:09:45;0.40;;;0.40;;
30519;SDS011;17300;50.374;8.006;2023-03-23T13:12:15;0.47;;;0.40;;
30519;SDS011;17300;50.374;8.006;2023-03-23T13:14:45;0.40;;;0.40;;
30519;SDS011;17300;50.374;8.006;2023-03-23T13:17:24;0.47;;;0.47;;
30519;SDS011;17300;50.374;8.006;2023-03-23T13:20:02;0.30;;;0.30;;
30519;SDS011;17300;50.374;8.006;2023-03-23T13:22:42;0.40;;;0.40;;
30519;SDS011;17300;50.374;8.006;2023-03-23T13:25:17;0.30;;;0.30;;
30519;SDS011;17300;50.374;8.006;2023-03-23T13:27:55;0.33;;;0.30;;
30519;SDS011;17300;50.374;8.006;2023-03-23T13:30:23;0.47;;;0.40;;
30519;SDS011;17300;50.374;8.006;2023-03-23T13:32:50;0.30;;;0.30;;
30519;SDS011;17300;50.374;8.006;2023-03-23T13:35:19;0.33;;;0.30;;
30519;SDS011;17300;50.374;8.006;2023-03-23T13:37:47;0.20;;;0.20;;
30519;SDS011;17300;50.374;8.006;2023-03-23T13:40:20;0.37;;;0.30;;
30519;SDS011;17300;50.374;8.006;2023-03-23T13:42:52;0.37;;;0.37;;
30519;SDS011;17300;50.374;8.006;2023-03-23T13:45:21;0.30;;;0.30;;
30519;SDS011;17300;50.374;8.006;2023-03-23T13:47:50;0.37;;;0.27;;
30519;SDS011;17300;50.374;8.006;2023-03-23T13:50:31;0.30;;;0.30;;
30519;SDS011;17300;50.374;8.006;2023-03-23T13:53:13;0.30;;;0.30;;
30519;SDS011;17300;50.374;8.006;2023-03-23T13:55:41;0.23;;;0.20;;
30519;SDS011;17300;50.374;8.006;2023-03-23T13:58:21;0.30;;;0.30;;
30519;SDS011;17300;50.374;8.006;2023-03-23T14:00:50;0.40;;;0.40;;
30519;SDS011;17300;50.374;8.006;2023-03-23T14:03:33;0.50;;;0.47;;
30519;SDS011;17300;50.374;8.006;2023-03-23T14:06:05;0.30;;;0.30;;
30519;SDS011;17300;50.374;8.006;2023-03-23T14:08:40;0.30;;;0.30;;
30519;SDS011;17300;50.374;8.006;2023-03-23T14:11:10;0.30;;;0.30;;
30519;SDS011;17300;50.374;8.006;2023-03-23T14:13:41;0.97;;;0.30;;
30519;SDS011;17300;50.374;8.006;2023-03-23T14:16:14;0.40;;;0.40;;
30519;SDS011;17300;50.374;8.006;2023-03-23T14:18:47;0.50;;;0.30;;
30519;SDS011;17300;50.374;8.006;2023-03-23T14:21:24;0.30;;;0.30;;
30519;SDS011;17300;50.374;8.006;2023-03-23T14:23:59;0.30;;;0.30;;
30519;SDS011;17300;50.374;8.006;2023-03-23T14:26:27;0.57;;;0.30;;
30519;SDS011;17300;50.374;8.006;2023-03-23T14:28:54;0.67;;;0.40;;
30519;SDS011;17300;50.374;8.006;2023-03-23T14:31:21;0.40;;;0.40;;
30519;SDS011;17300;50.374;8.006;2023-03-23T14:33:50;0.40;;;0.40;;
30519;SDS011;17300;50.374;8.006;2023-03-23T14:36:21;0.30;;;0.30;;
30519;SDS011;17300;50.374;8.006;2023-03-23T14:38:54;0.30;;;0.30;;
30519;SDS011;17300;50.374;8.006;2023-03-23T14:41:27;0.70;;;0.40;;
30519;SDS011;17300;50.374;8.006;2023-03-23T14:43:55;0.90;;;0.50;;
30519;SDS011;17300;50.374;8.006;2023-03-23T14:46:22;0.60;;;0.40;;
30519;SDS011;17300;50.374;8.006;2023-03-23T14:48:50;0.53;;;0.40;;
30519;SDS011;17300;50.374;8.006;2023-03-23T14:51:18;0.40;;;0.40;;
30519;SDS011;17300;50.374;8.006;2023-03-23T14:53:47;0.50;;;0.50;;
30519;SDS011;17300;50.374;8.006;2023-03-23T14:56:17;0.60;;;0.40;;
30519;SDS011;17300;50.374;8.006;2023-03-23T14:58:47;0.33;;;0.33;;
30519;SDS011;17300;50.374;8.006;2023-03-23T15:01:15;0.63;;;0.40;;
30519;SDS011;17300;50.374;8.006;2023-03-23T15:03:46;0.40;;;0.40;;
30519;SDS011;17300;50.374;8.006;2023-03-23T15:06:19;0.47;;;0.40;;
30519;SDS011;17300;50.374;8.006;2023-03-23T15:08:49;0.60;;;0.60;;
30519;SDS011;17300;50.374;8.006;2023-03-23T15:11:21;1.00;;;0.60;;
30519;SDS011;17300;50.374;8.006;2023-03-23T15:13:52;0.70;;;0.60;;